createdAt,value
2022-09-20T00:00:08.721Z,2.27
2022-09-20T00:05:00.967Z,1.90
2022-09-20T00:09:53.217Z,2.60
2022-09-20T00:14:45.519Z,1.00
2022-09-20T00:19:37.675Z,0.77
2022-09-20T00:24:29.926Z,1.83
2022-09-20T00:29:22.514Z,2.17
2022-09-20T00:34:33.064Z,1.67
2022-09-20T00:39:25.671Z,2.10
2022-09-20T00:44:49.950Z,4.10
2022-09-20T00:49:42.123Z,1.17
2022-09-20T00:54:34.624Z,2.30
2022-09-20T00:59:35.079Z,3.17
2022-09-20T01:04:28.921Z,4.47
2022-09-20T01:09:21.717Z,1.90
2022-09-20T01:14:17.288Z,1.93
2022-09-20T01:19:19.804Z,2.57
2022-09-20T01:24:27.827Z,2.70
2022-09-20T01:29:53.166Z,1.83
2022-09-20T01:34:48.278Z,3.67
2022-09-20T01:39:50.390Z,2.30
2022-09-20T01:45:03.602Z,3.33
2022-09-20T01:50:08.379Z,1.17
2022-09-20T01:55:09.814Z,3.10
2022-09-20T02:00:36.296Z,2.57
2022-09-20T02:05:40.164Z,2.80
2022-09-20T02:11:01.957Z,1.87
2022-09-20T02:16:16.408Z,5.13
2022-09-20T02:21:35.615Z,3.40
2022-09-20T02:26:30.626Z,3.93
2022-09-20T02:31:27.843Z,4.80
2022-09-20T02:36:51.820Z,2.83
2022-09-20T02:42:09.396Z,3.03
2022-09-20T02:47:21.056Z,3.07
2022-09-20T02:52:21.997Z,2.70
2022-09-20T02:57:42.362Z,4.00
2022-09-20T03:02:51.641Z,1.73
2022-09-20T03:08:09.442Z,5.13
2022-09-20T03:13:13.785Z,3.67
2022-09-20T03:18:27.283Z,4.40
2022-09-20T03:23:42.521Z,7.10
2022-09-20T03:29:09.286Z,6.13
2022-09-20T03:34:20.182Z,4.23
2022-09-20T03:39:31.475Z,7.93
2022-09-20T03:44:45.393Z,7.57
2022-09-20T03:49:51.243Z,6.87
2022-09-20T03:55:14.983Z,4.77
2022-09-20T04:01:03.587Z,7.47
2022-09-20T04:07:10.753Z,4.00
2022-09-20T04:13:17.783Z,5.93
2022-09-20T04:19:24.823Z,6.63
2022-09-20T04:25:31.862Z,4.67
2022-09-20T04:31:40.120Z,6.17
2022-09-20T04:37:46.925Z,7.13
2022-09-20T04:43:54.102Z,8.57
2022-09-20T04:50:01.061Z,6.50
2022-09-20T04:56:08.261Z,8.13
2022-09-20T05:02:15.491Z,6.37
2022-09-20T05:08:22.792Z,7.20
2022-09-20T05:20:42.959Z,7.23
2022-09-20T05:26:50.551Z,5.40
2022-09-20T05:32:57.446Z,5.40
2022-09-20T05:39:04.868Z,7.10
2022-09-20T05:45:11.933Z,7.73
2022-09-20T05:51:19.051Z,8.60
2022-09-20T05:57:26.201Z,9.20
2022-09-20T06:03:06.678Z,7.57
2022-09-20T06:08:04.893Z,8.27
2022-09-20T06:13:27.243Z,8.90
2022-09-20T06:18:26.645Z,8.77
2022-09-20T06:23:19.532Z,9.07
2022-09-20T06:28:19.827Z,10.20
2022-09-20T06:33:20.837Z,14.67
2022-09-20T06:39:11.905Z,9.33
2022-09-20T06:44:06.538Z,6.93
2022-09-20T06:48:59.386Z,7.23
2022-09-20T06:53:52.794Z,9.13
2022-09-20T06:58:45.129Z,5.80
2022-09-20T07:03:38.975Z,4.47
2022-09-20T07:08:31.424Z,4.20
2022-09-20T07:13:24.361Z,5.87
2022-09-20T07:18:16.957Z,4.77
2022-09-20T07:23:09.286Z,6.57
2022-09-20T07:28:01.626Z,8.40
2022-09-20T07:32:53.887Z,6.73
2022-09-20T07:37:47.152Z,8.23
2022-09-20T07:42:39.845Z,6.70
2022-09-20T07:47:35.573Z,9.07
2022-09-20T07:52:28.621Z,9.43
2022-09-20T07:57:20.968Z,7.67
2022-09-20T08:02:16.764Z,12.97
2022-09-20T08:07:10.352Z,12.43
2022-09-20T08:17:15.345Z,11.07
2022-09-20T08:22:07.990Z,7.93
2022-09-20T08:27:00.222Z,10.73
2022-09-20T08:31:53.233Z,6.80
2022-09-20T08:36:52.141Z,7.00
2022-09-20T08:41:48.824Z,11.37
2022-09-20T08:46:46.561Z,8.50
2022-09-20T08:51:41.552Z,8.77
2022-09-20T08:56:37.610Z,5.93
2022-09-20T09:01:32.553Z,5.20
2022-09-20T09:06:25.180Z,5.03
2022-09-20T09:11:20.975Z,4.57
2022-09-20T09:16:23.121Z,3.70
2022-09-20T09:21:20.638Z,2.87
2022-09-20T09:26:38.294Z,4.70
2022-09-20T09:31:30.577Z,4.27
2022-09-20T09:36:25.944Z,3.50
2022-09-20T09:41:18.493Z,3.73
2022-09-20T09:46:23.360Z,2.47
2022-09-20T09:51:20.681Z,2.43
2022-09-20T09:56:47.480Z,4.43
2022-09-20T10:02:19.108Z,3.80
2022-09-20T10:07:43.580Z,4.63
2022-09-20T10:12:50.523Z,5.00
2022-09-20T10:17:55.793Z,4.30
2022-09-20T10:23:39.858Z,2.10
2022-09-20T10:28:48.542Z,2.63
2022-09-20T10:33:43.870Z,4.33
2022-09-20T10:38:57.024Z,5.10
2022-09-20T10:44:16.665Z,3.03
2022-09-20T10:49:35.331Z,2.57
2022-09-20T10:54:46.359Z,5.60
2022-09-20T10:59:51.924Z,2.57
2022-09-20T11:05:20.068Z,1.87
2022-09-20T11:10:36.306Z,2.57
2022-09-20T11:15:52.804Z,1.60
2022-09-20T11:21:03.296Z,1.87
2022-09-20T11:26:12.075Z,1.73
2022-09-20T11:31:18.181Z,5.93
2022-09-20T11:36:22.752Z,2.93
2022-09-20T11:41:29.383Z,2.23
2022-09-20T11:46:42.604Z,1.10
2022-09-20T11:51:45.648Z,1.77
2022-09-20T11:56:39.073Z,1.50
2022-09-20T12:01:37.533Z,4.20
2022-09-20T12:06:50.536Z,2.97
2022-09-20T12:11:46.854Z,1.13
2022-09-20T12:16:48.144Z,1.40
2022-09-20T12:21:58.682Z,3.67
2022-09-20T12:26:53.243Z,3.33
2022-09-20T12:31:51.568Z,3.70
2022-09-20T12:36:45.258Z,2.80
2022-09-20T12:41:52.115Z,4.07
2022-09-20T12:46:56.870Z,1.23
2022-09-20T12:52:10.674Z,2.17
2022-09-20T12:57:19.320Z,1.77
2022-09-20T13:02:45.020Z,3.17
2022-09-20T13:07:48.085Z,2.30
2022-09-20T13:12:41.786Z,1.97
2022-09-20T13:17:35.048Z,1.70
2022-09-20T13:22:43.723Z,2.30
2022-09-20T13:27:40.406Z,3.37
2022-09-20T13:32:34.766Z,2.03
2022-09-20T13:37:27.649Z,2.13
2022-09-20T13:42:20.128Z,3.47
2022-09-20T13:48:08.852Z,3.13
2022-09-20T13:54:15.836Z,2.87
2022-09-20T14:00:22.945Z,4.07
2022-09-20T14:06:29.964Z,0.93
2022-09-20T14:12:38.193Z,0.80
2022-09-20T14:18:46.124Z,0.90
2022-09-20T14:24:54.574Z,1.13
2022-09-20T14:31:02.098Z,1.30
2022-09-20T14:37:09.176Z,0.40
2022-09-20T14:43:16.807Z,3.07
2022-09-20T14:49:24.058Z,1.33
2022-09-20T14:55:36.460Z,1.77
2022-09-20T15:01:44.767Z,2.37
2022-09-20T15:07:53.249Z,2.10
2022-09-20T15:14:01.640Z,1.43
2022-09-20T15:20:09.903Z,0.67
2022-09-20T15:26:17.166Z,0.70
2022-09-20T15:32:25.565Z,1.00
2022-09-20T15:38:33.053Z,2.43
2022-09-20T15:44:40.405Z,1.00
2022-09-20T15:49:38.073Z,0.80
2022-09-20T15:54:34.162Z,1.37
2022-09-20T15:59:29.669Z,1.20
2022-09-20T16:04:22.161Z,1.57
2022-09-20T16:09:15.388Z,2.97
2022-09-20T16:14:08.436Z,4.47
2022-09-20T16:19:21.353Z,1.20
2022-09-20T16:24:14.197Z,2.90
2022-09-20T16:29:11.732Z,1.97
2022-09-20T16:34:06.708Z,1.60
2022-09-20T16:39:00.147Z,4.00
2022-09-20T16:43:54.565Z,4.63
2022-09-20T16:48:50.007Z,2.03
2022-09-20T16:53:44.136Z,3.77
2022-09-20T16:58:37.027Z,5.13
2022-09-20T17:03:29.982Z,9.97
2022-09-20T17:08:23.566Z,2.77
2022-09-20T17:13:17.258Z,0.70
2022-09-20T17:18:15.580Z,3.97
2022-09-20T17:23:09.320Z,1.80
2022-09-20T17:28:02.494Z,1.00
2022-09-20T17:32:56.328Z,0.80
2022-09-20T17:37:50.004Z,1.73
2022-09-20T17:42:44.769Z,2.73
2022-09-20T17:47:40.680Z,1.30
2022-09-20T17:52:33.642Z,0.70
2022-09-20T17:57:26.111Z,0.50
2022-09-20T18:02:19.177Z,1.53
2022-09-20T18:07:12.406Z,2.10
2022-09-20T18:12:07.605Z,11.17
2022-09-20T18:17:03.678Z,14.67
2022-09-20T18:21:56.647Z,20.00
2022-09-20T18:26:51.652Z,9.23
2022-09-20T18:31:50.778Z,7.70
2022-09-20T18:36:49.470Z,5.23
2022-09-20T18:41:43.815Z,5.63
2022-09-20T18:46:38.427Z,9.20
2022-09-20T18:51:38.563Z,11.63
2022-09-20T18:56:36.726Z,11.70
2022-09-20T19:01:43.042Z,9.73
2022-09-20T19:07:14.898Z,7.17
2022-09-20T19:12:30.467Z,10.37
2022-09-20T19:17:50.925Z,9.30
2022-09-20T19:23:18.288Z,4.00
2022-09-20T19:28:18.179Z,5.07
2022-09-20T19:33:18.679Z,4.10
2022-09-20T19:38:20.412Z,5.10
2022-09-20T19:43:24.133Z,5.13
2022-09-20T19:48:42.847Z,4.10
2022-09-20T19:53:44.763Z,4.70
2022-09-20T19:58:38.128Z,4.53
2022-09-20T20:03:31.333Z,3.57
2022-09-20T20:08:34.144Z,3.00
2022-09-20T20:14:03.843Z,2.80
2022-09-20T20:19:14.852Z,2.93
2022-09-20T20:24:22.910Z,2.43
2022-09-20T20:29:15.585Z,2.30
2022-09-20T20:34:09.169Z,2.30
2022-09-20T20:39:03.051Z,2.57
2022-09-20T20:43:56.558Z,2.60
2022-09-20T20:48:48.982Z,2.80
2022-09-20T20:53:45.340Z,2.83
2022-09-20T20:58:41.095Z,4.23
2022-09-20T21:03:35.964Z,3.43
2022-09-20T21:08:37.683Z,3.67
2022-09-20T21:13:30.334Z,4.57
2022-09-20T21:18:22.618Z,3.47
2022-09-20T21:23:14.884Z,4.93
2022-09-20T21:28:07.115Z,5.37
2022-09-20T21:33:00.646Z,4.70
2022-09-20T21:37:53.591Z,5.07
2022-09-20T21:42:46.178Z,4.57
2022-09-20T21:47:38.531Z,4.30
2022-09-20T21:52:30.759Z,5.30
2022-09-20T21:57:23.739Z,6.10
2022-09-20T22:02:17.126Z,3.70
2022-09-20T22:07:10.606Z,3.00
2022-09-20T22:12:04.156Z,3.20
2022-09-20T22:16:56.648Z,3.60
2022-09-20T22:21:51.015Z,2.50
2022-09-20T22:26:45.975Z,3.53
2022-09-20T22:31:45.277Z,5.13
2022-09-20T22:36:40.322Z,2.73
2022-09-20T22:41:33.456Z,2.97
2022-09-20T22:46:28.515Z,3.93
2022-09-20T22:51:30.190Z,3.50
2022-09-20T22:56:25.620Z,3.03
2022-09-20T23:01:24.656Z,3.60
2022-09-20T23:06:23.332Z,4.13
2022-09-20T23:11:19.292Z,3.53
2022-09-20T23:16:19.750Z,3.67
2022-09-20T23:21:12.973Z,3.80
2022-09-20T23:26:13.176Z,7.37
2022-09-20T23:31:09.565Z,3.87
2022-09-20T23:36:06.462Z,4.07
2022-09-20T23:41:06.197Z,6.07
2022-09-20T23:45:59.410Z,5.20
2022-09-20T23:50:51.595Z,3.60
2022-09-20T23:55:43.819Z,4.57
